• Join FlightAware (Why Join?)
  • Login
  • US Flag 
12:57AM EDT


 

Airport Tracker/Info


-or-


 

Live Flight TrackerFlight Track Log ✈ N830QS ✈ 21-Jun-2013 ✈ KSAT - 36U

Flight Track Log - Related Links

Times and Time Zones

All times are in EDT time to prevent confusion due to time zone crossing. See the N830QS flight status page for this flight to view local times or setup timezone preferences in your user account.

Time Position Orientation Groundspeed Altitude Reporting Facility
EDT Latitude Longitude Course Direction KTS MPH feet Rate Location/Type
11:12AM 29.5272 -98.4681 128° Southeast 148 170 1,600  Level Houston Center
11:13AM 29.4983 -98.4261 128° Southeast 217 250 3,700 3,060 Climbing Houston Center
11:13AM 29.5081 -98.3856 75° East 236 272 6,000 2,580 Climbing Houston Center
11:14AM 29.5836 -98.3703 10° North 299 344 8,000 2,460 Climbing Houston Center
11:15AM 29.6764 -98.3739 358° North 311 358 11,200 2,760 Climbing Houston Center
11:16AM 29.7642 -98.3778 358° North 315 362 13,800 2,340 Climbing Houston Center
11:17AM 29.8611 -98.3814 358° North 323 372 16,100 1,920 Climbing Houston Center
11:18AM 29.9553 -98.3858 358° North 338 389 17,800 1,740 Climbing Houston Center
11:20AM 30.0608 -98.3906 358° North 352 405 19,700 1,740 Climbing Houston Center
11:21AM 30.1436 -98.4228 333° Northwest  Level FlightAware Approximate
11:22AM 30.2503 -98.4803 333° Northwest 362 417 23,200  Level Houston Center
11:23AM 30.3239 -98.5233 333° Northwest 343 395 24,700 1,380 Climbing Houston Center
11:24AM 30.4292 -98.5872 332° Northwest 360 414 26,100 1,140 Climbing Houston Center
11:25AM 30.5217 -98.6433 332° Northwest 368 423 27,100 960 Climbing Houston Center
11:26AM 30.6172 -98.7028 332° Northwest 382 440 28,200 960 Climbing Houston Center
11:27AM 30.7139 -98.7603 333° Northwest 385 443 29,200 960 Climbing Houston Center
11:28AM 30.8106 -98.8203 332° Northwest 388 447 30,300 1,140 Climbing Houston Center
11:29AM 30.9086 -98.8789 333° Northwest 389 448 31,600 1,380 Climbing Houston Center
11:30AM 31.0019 -98.9372 332° Northwest 379 436 33,200 1,320 Climbing Houston Center
11:31AM 31.0961 -98.9944 333° Northwest 376 433 34,400 1,200 Climbing Houston Center
11:32AM 31.2039 -99.0622 332° Northwest 374 430 35,800 1,200 Climbing Houston Center
11:33AM 31.2953 -99.1189 332° Northwest 368 423 37,000 1,140 Climbing Houston Center
11:34AM 31.3869 -99.1750 332° Northwest 367 422 38,200 1,080 Climbing Houston Center
11:35AM 31.4772 -99.2314 332° Northwest 364 419 39,300 840 Climbing Houston Center
11:36AM 31.5636 -99.2856 332° Northwest 352 405 40,000 300 Climbing Houston Center
11:37AM 31.6578 -99.3436 332° Northwest 369 425 40,000  Level Houston Center
11:38AM 31.7714 -99.4147 332° Northwest 372 428 40,000  Level Fort Worth Center
11:39AM 31.8706 -99.4756 332° Northwest 383 441 40,000  Level Fort Worth Center
11:40AM 31.9678 -99.5389 331° Northwest 388 447 40,000  Level Fort Worth Center
11:41AM 32.0647 -99.6000 332° Northwest 393 452 40,000  Level Fort Worth Center
11:42AM 32.1639 -99.6614 332° Northwest 393 452 40,000  Level Fort Worth Center
11:43AM 32.2631 -99.7253 331° Northwest 393 452 40,000  Level Fort Worth Center
11:44AM 32.3619 -99.7892 331° Northwest 393 452 40,000  Level Fort Worth Center
11:45AM 32.4589 -99.8508 332° Northwest 393 452 40,000  Level Fort Worth Center
11:46AM 32.5536 -99.9175 329° Northwest 388 447 40,000  Level Fort Worth Center
11:47AM 32.6631 -99.9797 334° Northwest 399 459 40,000  Level Fort Worth Center
11:48AM 32.7597 -100.0442 331° Northwest 393 452 40,000  Level Fort Worth Center
11:49AM 32.8503 -100.1039 331° Northwest 415 478 40,000  Level Fort Worth Center
11:50AM 32.9469 -100.1736 329° Northwest 410 472 40,000  Level Fort Worth Center
11:51AM 33.0200 -100.2650 314° West 396 456 40,000  Level Fort Worth Center
11:52AM 33.0950 -100.3617 313° West 386 444 40,000  Level Fort Worth Center
11:53AM 33.1700 -100.4561 314° West 391 450 40,000  Level Fort Worth Center
11:54AM 33.2469 -100.5531 314° West 391 450 40,000  Level Fort Worth Center
11:55AM 33.3239 -100.6478 314° West 391 450 40,000  Level Fort Worth Center
11:56AM 33.4006 -100.7450 313° West 396 456 40,000  Level Fort Worth Center
11:57AM 33.4794 -100.8428 314° West 401 461 40,000  Level Fort Worth Center
11:58AM 33.5539 -100.9378 313° West 394 453 40,000  Level Fort Worth Center
11:59AM 33.6406 -101.0461 314° West 394 453 40,000  Level Fort Worth Center
12:00PM 33.7089 -101.1364 312° West 406 467 40,000  Level Fort Worth Center
12:01PM 33.7933 -101.2450 313° West 406 467 40,000  Level Fort Worth Center
12:02PM 33.8636 -101.3331 314° West 406 467 40,000  Level Fort Worth Center
12:03PM 33.9456 -101.4419 312° West 406 467 40,000  Level Fort Worth Center
12:04PM 34.0158 -101.5303 314° West 406 467 40,000  Level Fort Worth Center
12:05PM 34.0978 -101.6394 312° West 406 467 40,000  Level Fort Worth Center
12:06PM 34.1656 -101.7281 313° West 401 461 40,000  Level Fort Worth Center
12:09PM 34.3431 -101.9600 313° West 407 468 40,000  Level Albuquerque Center
12:10PM 34.4197 -102.0608 313° West 407 468 40,000  Level Albuquerque Center
12:11PM 34.5108 -102.1803 313° West 401 461 40,000  Level Albuquerque Center
12:12PM 34.5856 -102.2808 312° West 401 461 40,000  Level Albuquerque Center
12:13PM 34.6619 -102.3803 313° West 402 463 40,000  Level Albuquerque Center
12:14PM 34.7375 -102.4808 312° West 401 461 40,000  Level Albuquerque Center
12:15PM 34.8131 -102.5808 313° West 401 461 40,000  Level Albuquerque Center
12:16PM 34.8922 -102.6886 312° West 404 465 40,000  Level Albuquerque Center
12:17PM 34.9694 -102.7903 313° West 406 467 40,000  Level Albuquerque Center
12:18PM 35.0558 -102.9072 312° West 405 466 40,000  Level Albuquerque Center
12:19PM 35.1356 -103.0125 313° West 405 466 40,000  Level Albuquerque Center
12:20PM 35.2122 -103.1167 312° West 408 470 40,000  Level Albuquerque Center
12:21PM 35.2889 -103.2203 312° West 408 470 40,000  Level Albuquerque Center
12:22PM 35.3661 -103.3242 312° West 409 471 40,000  Level Albuquerque Center
12:23PM 35.4419 -103.4286 312° West 409 471 40,000  Level Albuquerque Center
12:24PM 35.5189 -103.5336 312° West 410 472 40,000  Level Albuquerque Center
12:25PM 35.6067 -103.6556 312° West 408 470 40,000  Level Albuquerque Center
12:26PM 35.6825 -103.7614 311° West 410 472 40,000  Level Albuquerque Center
12:27PM 35.7594 -103.8669 312° West 412 474 40,000  Level Albuquerque Center
12:28PM 35.8347 -103.9725 311° West 410 472 40,000  Level Albuquerque Center
12:29PM 35.9108 -104.0789 311° West 412 474 40,000  Level Albuquerque Center
12:30PM 35.9881 -104.1864 312° West 415 478 40,000  Level Albuquerque Center
12:31PM 36.0756 -104.3108 311° West 410 472 40,000  Level Albuquerque Center
12:32PM 36.1503 -104.4144 312° West 403 464 40,000  Level Albuquerque Center
12:33PM 36.2228 -104.5181 311° West 397 457 40,000  Level Albuquerque Center
12:34PM 36.2958 -104.6214 311° West 396 456 40,000  Level Albuquerque Center
12:35PM 36.3683 -104.7225 312° West 391 450 40,000  Level Albuquerque Center
12:36PM 36.4406 -104.8261 311° West 392 451 40,000  Level Albuquerque Center
12:38PM 36.5122 -104.9264 312° West 389 448 40,000  Level Albuquerque Center
12:39PM 36.5967 -105.0492 311° West 396 456 40,000  Level Albuquerque Center
12:40PM 36.6706 -105.1525 312° West 396 456 40,000  Level Albuquerque Center
12:41PM 36.7394 -105.2536 310° West 394 453 40,000  Level Albuquerque Center
12:42PM 36.8167 -105.3658 311° West 385 443 40,000  Level Albuquerque Center
12:43PM 36.8836 -105.4622 311° West 383 441 40,000  Level Albuquerque Center
12:43PM 36.9289 -105.5297 310° West 386 444 40,000  Level Denver Center
12:44PM 37.0081 -105.6450 311° West 390 449 40,000  Level Denver Center
12:45PM 37.0775 -105.7464 311° West 396 456 40,000  Level Denver Center
12:47PM 37.1711 -105.8831 311° West 397 457 40,000  Level Denver Center
12:48PM 37.2397 -105.9839 311° West 397 457 40,000  Level Denver Center
12:49PM 37.3194 -106.1025 310° West 397 457 40,000  Level Denver Center
12:50PM 37.3878 -106.2044 310° West 398 458 40,000  Level Denver Center
12:51PM 37.4661 -106.3219 310° West 395 455 40,100  Climbing Denver Center
12:52PM 37.5308 -106.4181 310° West 386 444 40,000 -60 Descending Denver Center
12:53PM 37.6014 -106.5233 310° West 364 419 40,000  Level Denver Center
12:54PM 37.6628 -106.6167 310° West 360 414 40,000  Level Denver Center
12:55PM 37.7383 -106.7308 310° West 366 421 40,000  Level Denver Center
12:56PM 37.8061 -106.8342 310° West 376 433 40,000  Level Denver Center
12:57PM 37.8792 -106.9411 311° West 397 457 40,000  Level Denver Center
12:58PM 37.9617 -107.0669 310° West 410 472 40,000  Level Denver Center
12:59PM 38.0339 -107.1742 311° West 417 480 40,000  Level Denver Center
01:00PM 38.1133 -107.3033 308° West 413 475 40,000  Level Denver Center
01:01PM 38.1817 -107.4083 310° West 405 466 40,000  Level Denver Center
01:02PM 38.2608 -107.5303 310° West 402 463 40,000  Level Denver Center
01:03PM 38.3281 -107.6347 309° West 399 459 40,000  Level Denver Center
01:04PM 38.4092 -107.7617 309° West 414 476 40,000  Level Denver Center
01:05PM 38.4769 -107.8681 309° West 405 466 40,000  Level Denver Center
01:06PM 38.5572 -107.9922 310° West 406 467 40,000  Level Denver Center
01:07PM 38.6236 -108.0986 309° West 399 459 40,000  Level Denver Center
01:08PM 38.7022 -108.2225 309° West 402 463 40,000  Level Denver Center
01:09PM 38.7689 -108.3292 309° West 400 460 40,000  Level Denver Center
01:10PM 38.8456 -108.4539 308° West 399 459 40,000  Level Denver Center
01:12PM 38.9125 -108.5597 309° West 396 456 40,000  Level Denver Center
01:13PM 38.9894 -108.6814 309° West 393 452 40,000  Level Denver Center
01:14PM 39.0539 -108.7858 308° West 390 449 40,000  Level Denver Center
01:15PM 39.1142 -108.8922 306° West 383 441 40,000  Level Denver Center
01:16PM 39.1856 -109.0200 306° West 390 449 40,000  Level Denver Center
01:17PM 39.2472 -109.1308 306° West 395 455 40,000  Level Denver Center
01:18PM 39.3200 -109.2619 306° West 400 460 40,000  Level Denver Center
01:19PM 39.3817 -109.3736 306° West 398 458 40,000 -180 Level Denver Center
01:20PM 39.4444 -109.4878 305° West 401 461 39,700 -1,140 Descending Salt Lake Center
01:21PM 39.5072 -109.5994 306° West 401 461 37,800 -1,980 Descending Salt Lake Center
01:22PM 39.5756 -109.7250 305° West 384 442 35,700 -1,500 Descending Salt Lake Center
01:23PM 39.6419 -109.8481 305° West 375 432 34,600 -840 Descending Denver Center
01:24PM 39.7022 -109.9567 306° West 381 438 34,000 -360 Descending Salt Lake Center
01:25PM 39.7597 -110.0642 305° West 379 436 34,000 -1,200 Level Salt Lake Center
01:26PM 39.8267 -110.1867 305° West 372 428 31,600 -2,520 Descending Salt Lake Center
01:27PM 39.8825 -110.2914 305° West 368 423 28,900 -2,700 Descending Salt Lake Center
01:28PM 39.9397 -110.3981 305° West 374 430 26,100 -3,000 Descending Salt Lake Center
01:29PM 40.0039 -110.5194 305° West 363 418 22,700 -3,120 Descending Salt Lake Center
01:30PM 40.0544 -110.6156 305° West 339 390 19,700 -3,120 Descending Salt Lake Center
01:31PM 40.1117 -110.7214 305° West 323 372 16,300 -2,460 Descending Salt Lake Center
01:32PM 40.1597 -110.8092 306° West 313 360 14,700 -1,500 Descending Salt Lake Center
01:33PM 40.2150 -110.9172 304° West 318 366 13,300 -840 Descending Salt Lake Center
01:34PM 40.2658 -111.0122 305° West 334 384 13,000 -180 Descending Salt Lake Center
01:35PM 40.3122 -111.1025 304° West 307 353 13,000  Level Salt Lake Center
01:36PM 40.3575 -111.1878 305° West 289 333 13,000  Level Salt Lake Center